Time;durP1;ratioP1;P1;durP2;ratioP2;P2;SDS_P1;SDS_P2;PMS_P1;PMS_P2;Temp;Humidity;BMP_temperature;BMP_pressure;BME280_temperature;BME280_humidity;BME280_pressure;Samples;Min_cycle;Max_cycle;Signal;HPM_P1;HPM_P2
2022/04/30 00:00:58;;;;;;;20.98;8.80;;;;;;;6.91;100.00;102950.97;4982201;28;20075;-79
2022/04/30 00:03:28;;;;;;;11.70;9.07;;;;;;;6.92;100.00;102959.72;5004925;28;20054;-79
2022/04/30 00:05:57;;;;;;;13.02;8.65;;;;;;;6.90;100.00;102953.50;4990925;28;20054;-79
2022/04/30 00:08:26;;;;;;;12.55;9.30;;;;;;;6.87;100.00;102955.97;4971636;28;20054;-79
2022/04/30 00:10:55;;;;;;;14.20;8.77;;;;;;;6.87;100.00;102961.22;4970467;28;20062;-79
2022/04/30 00:13:23;;;;;;;11.40;8.20;;;;;;;6.85;100.00;102960.25;4933677;28;20489;-80
2022/04/30 00:15:52;;;;;;;15.15;8.85;;;;;;;6.82;100.00;102956.66;4954340;28;20068;-80
2022/04/30 00:18:20;;;;;;;12.60;8.52;;;;;;;6.79;100.00;102951.22;4974916;28;20038;-79
2022/04/30 00:20:49;;;;;;;16.00;9.10;;;;;;;6.79;100.00;102951.22;4965752;28;20043;-80
2022/04/30 00:23:20;;;;;;;9.70;7.32;;;;;;;6.79;100.00;102947.72;5007471;28;20396;-79
2022/04/30 00:25:51;;;;;;;16.63;8.98;;;;;;;6.78;100.00;102943.28;4980239;28;20046;-79
2022/04/30 00:28:24;;;;;;;12.98;7.68;;;;;;;6.75;100.00;102949.28;4949083;28;20523;-79
2022/04/30 00:30:54;;;;;;;12.45;8.05;;;;;;;6.72;100.00;102943.88;4969398;28;20054;-79
2022/04/30 00:33:23;;;;;;;10.55;7.80;;;;;;;6.71;100.00;102939.47;4952036;28;20038;-79
2022/04/30 00:35:52;;;;;;;12.65;8.00;;;;;;;6.69;100.00;102945.41;4966607;28;20034;-79
2022/04/30 00:38:20;;;;;;;13.35;7.95;;;;;;;6.67;100.00;102941.81;5004823;28;20061;-79
2022/04/30 00:40:49;;;;;;;16.23;7.85;;;;;;;6.64;100.00;102934.72;4984068;28;20244;-79
2022/04/30 00:43:17;;;;;;;14.20;8.45;;;;;;;6.64;100.00;102935.59;4967906;28;20041;-79
2022/04/30 00:45:48;;;;;;;12.63;7.13;;;;;;;6.64;100.00;102934.72;4991462;28;20042;-79
2022/04/30 00:48:17;;;;;;;11.05;7.00;;;;;;;6.64;100.00;102932.97;4968612;28;20054;-79
2022/04/30 00:50:48;;;;;;;13.82;8.07;;;;;;;6.65;100.00;102933.88;4959159;28;20461;-79
2022/04/30 00:53:19;;;;;;;11.85;7.88;;;;;;;6.64;100.00;102927.75;4985957;28;20054;-79
2022/04/30 00:55:48;;;;;;;13.38;7.68;;;;;;;6.64;100.00;102924.22;4973228;28;20268;-80
2022/04/30 00:58:20;;;;;;;10.63;7.25;;;;;;;6.63;100.00;102928.56;4972917;28;20047;-79
2022/04/30 01:00:50;;;;;;;12.23;7.93;;;;;;;6.63;100.00;102919.78;4968844;28;20248;-79
2022/04/30 01:03:29;;;;;;;12.65;6.68;;;;;;;6.64;100.00;102919.88;4964190;28;20035;-79
2022/04/30 01:06:07;;;;;;;11.32;7.57;;;;;;;6.63;100.00;102912.84;4984862;28;20122;-79
2022/04/30 01:08:37;;;;;;;8.52;7.22;;;;;;;6.64;100.00;102904.16;4972570;28;20324;-79
2022/04/30 01:11:07;;;;;;;14.85;6.95;;;;;;;6.65;100.00;102915.53;4964177;28;20043;-79
2022/04/30 01:13:36;;;;;;;13.38;8.57;;;;;;;6.62;100.00;102900.56;4954896;28;20058;-79
2022/04/30 01:16:07;;;;;;;15.15;9.07;;;;;;;6.61;100.00;102904.00;4994674;28;20050;-79
2022/04/30 01:18:36;;;;;;;17.02;10.85;;;;;;;6.61;100.00;102909.22;4965791;28;20248;-79
2022/04/30 01:21:12;;;;;;;15.93;10.45;;;;;;;6.61;100.00;102908.34;4974444;28;20392;-79
2022/04/30 01:23:42;;;;;;;15.18;9.57;;;;;;;6.60;100.00;102902.22;4982373;28;20156;-79
2022/04/30 01:26:13;;;;;;;17.30;10.68;;;;;;;6.60;100.00;102898.69;4986688;28;20050;-79
2022/04/30 01:28:43;;;;;;;18.52;8.50;;;;;;;6.58;100.00;102890.75;4988502;28;20168;-79
2022/04/30 01:39:36;;;;;;;12.85;6.15;;;;;;;6.52;100.00;102882.59;4989929;28;20065;-80
2022/04/30 01:42:11;;;;;;;11.35;6.55;;;;;;;6.52;100.00;102886.91;4976701;28;20046;-79
2022/04/30 01:44:44;;;;;;;9.88;5.97;;;;;;;6.50;100.00;102884.19;4988895;28;20425;-79
2022/04/30 01:47:15;;;;;;;9.15;7.07;;;;;;;6.46;100.00;102886.59;4979820;28;20062;-79
2022/04/30 01:49:44;;;;;;;13.32;6.50;;;;;;;6.43;100.00;102882.09;4947225;28;20065;-79
2022/04/30 01:52:13;;;;;;;9.18;6.30;;;;;;;6.41;100.00;102875.88;5002531;28;20042;-79
2022/04/30 01:54:43;;;;;;;14.90;6.40;;;;;;;6.39;100.00;102880.09;4990088;28;20043;-79
2022/04/30 01:57:13;;;;;;;7.95;5.97;;;;;;;6.38;100.00;102873.09;4973569;28;20034;-79
2022/04/30 01:59:43;;;;;;;9.25;6.20;;;;;;;6.37;100.00;102869.56;4962666;28;20080;-79
2022/04/30 02:02:12;;;;;;;10.38;6.15;;;;;;;6.37;100.00;102871.28;4975118;28;20054;-79
2022/04/30 02:04:44;;;;;;;8.93;5.75;;;;;;;6.37;100.00;102877.44;4953114;28;20070;-79
2022/04/30 02:07:13;;;;;;;9.02;6.50;;;;;;;6.36;100.00;102864.25;4976887;28;20049;-79
2022/04/30 02:09:42;;;;;;;8.30;5.60;;;;;;;6.35;100.00;102872.91;4983560;28;20594;-79
2022/04/30 02:12:10;;;;;;;13.27;7.20;;;;;;;6.36;100.00;102869.50;4972666;28;20385;-79
2022/04/30 02:14:46;;;;;;;6.15;5.55;;;;;;;6.34;100.00;102872.03;4971234;28;20173;-79
2022/04/30 02:17:17;;;;;;;13.40;6.28;;;;;;;6.35;100.00;102865.06;4965683;28;20400;-79
2022/04/30 02:22:38;;;;;;;9.05;5.82;;;;;;;6.36;100.00;102865.16;4983521;28;20043;-80
2022/04/30 02:25:12;;;;;;;8.70;5.78;;;;;;;6.38;100.00;102858.25;4978789;28;20065;-79
2022/04/30 02:27:43;;;;;;;7.38;6.25;;;;;;;6.37;100.00;102860.78;4986660;28;20551;-80
2022/04/30 02:30:15;;;;;;;11.63;6.78;;;;;;;6.38;100.00;102862.63;4991989;28;20043;-79
2022/04/30 02:32:48;;;;;;;7.93;5.85;;;;;;;6.37;100.00;102847.69;4980162;28;23293;-80
2022/04/30 02:35:19;;;;;;;8.75;6.15;;;;;;;6.38;100.00;102857.38;4971518;28;20043;-79
2022/04/30 02:37:50;;;;;;;12.40;5.30;;;;;;;6.36;100.00;102854.66;4987204;28;20268;-80
2022/04/30 02:40:20;;;;;;;9.38;5.88;;;;;;;6.35;100.00;102842.41;4981868;28;20415;-80
2022/04/30 02:42:52;;;;;;;7.00;5.88;;;;;;;6.36;100.00;102841.56;4988109;28;20654;-79
2022/04/30 02:45:22;;;;;;;9.43;5.85;;;;;;;6.35;100.00;102831.00;4986977;28;20047;-80
2022/04/30 02:47:56;;;;;;;9.05;5.80;;;;;;;6.33;100.00;102837.91;4973196;28;20065;-79
2022/04/30 02:50:25;;;;;;;8.73;5.78;;;;;;;6.32;100.00;102833.50;4961670;28;20055;-79
2022/04/30 02:52:55;;;;;;;9.60;5.38;;;;;;;6.30;100.00;102829.91;4981418;28;20038;-79
2022/04/30 02:55:23;;;;;;;6.45;5.15;;;;;;;6.26;100.00;102823.59;4973753;28;20054;-79
2022/04/30 03:00:45;;;;;;;9.98;5.70;;;;;;;6.21;100.00;102831.19;4987406;28;20038;-80
2022/04/30 03:03:21;;;;;;;9.63;5.55;;;;;;;6.20;100.00;102831.09;4972698;28;20066;-80
2022/04/30 03:05:53;;;;;;;11.13;5.07;;;;;;;6.19;100.00;102821.47;4966009;28;20255;-80
2022/04/30 03:08:25;;;;;;;10.02;5.88;;;;;;;6.18;100.00;102824.88;4939081;28;20298;-80
2022/04/30 03:10:56;;;;;;;6.88;6.28;;;;;;;6.16;100.00;102822.22;4971651;28;20051;-80
2022/04/30 03:13:24;;;;;;;;;;;;;;;6.16;100.00;102819.59;4921029;28;20530;-80
2022/04/30 03:15:55;;;;;;;8.38;5.35;;;;;;;6.14;100.00;102810.75;4970159;28;20146;-79
2022/04/30 03:23:57;;;;;;;7.10;5.72;;;;;;;6.11;100.00;102812.31;4967043;28;20392;-79
2022/04/30 03:26:27;;;;;;;8.23;5.88;;;;;;;6.09;100.00;102817.47;4955488;28;20522;-79
2022/04/30 03:28:55;;;;;;;6.53;5.88;;;;;;;6.07;100.00;102803.41;4969786;28;20049;-80
2022/04/30 03:31:24;;;;;;;6.63;5.35;;;;;;;6.04;100.00;102809.34;4979818;28;20054;-79
2022/04/30 03:33:53;;;;;;;8.02;6.03;;;;;;;6.03;100.00;102804.03;4958885;28;20347;-79
2022/04/30 03:36:21;;;;;;;9.15;5.63;;;;;;;6.01;100.00;102805.66;4974240;28;20042;-79
2022/04/30 03:38:50;;;;;;;7.78;5.43;;;;;;;6.00;100.00;102803.91;4968771;28;20862;-79
2022/04/30 03:41:20;;;;;;;8.40;6.10;;;;;;;5.98;100.00;102795.06;4983750;28;20047;-79
2022/04/30 03:43:49;;;;;;;11.97;6.47;;;;;;;5.98;100.00;102800.28;4979046;28;20570;-79
2022/04/30 03:46:17;;;;;;;9.55;5.97;;;;;;;5.97;100.00;102799.41;4970638;28;20294;-79
2022/04/30 03:48:51;;;;;;;9.20;6.45;;;;;;;5.96;100.00;102802.81;4972766;28;20176;-79
2022/04/30 03:51:25;;;;;;;9.38;6.20;;;;;;;5.94;100.00;102795.69;4967604;28;20400;-80
2022/04/30 03:53:54;;;;;;;9.90;5.72;;;;;;;5.94;100.00;102790.47;4949760;28;20172;-80
2022/04/30 03:56:24;;;;;;;9.80;5.90;;;;;;;5.93;100.00;102788.63;4988891;28;20523;-80
2022/04/30 03:58:52;;;;;;;11.57;5.95;;;;;;;5.93;100.00;102788.63;4984044;28;20252;-79
2022/04/30 04:01:24;;;;;;;;;;;;;;;5.94;100.00;102787.84;4971350;28;20058;-79
2022/04/30 04:03:52;;;;;;;9.88;5.43;;;;;;;5.89;100.00;102782.34;4989716;28;19921;-79
2022/04/30 04:06:22;;;;;;;9.98;5.82;;;;;;;5.86;100.00;102779.59;4993406;28;20054;-79
2022/04/30 04:08:52;;;;;;;7.60;6.15;;;;;;;5.84;100.00;102782.13;4951836;28;20184;-79
2022/04/30 04:11:22;;;;;;;12.43;6.20;;;;;;;5.83;100.00;102787.25;4974722;28;20057;-79
2022/04/30 04:19:26;;;;;;;6.55;5.70;;;;;;;5.84;100.00;102782.13;4968796;28;20054;-79
2022/04/30 04:21:56;;;;;;;7.13;6.10;;;;;;;5.87;100.00;102773.50;4976209;28;20280;-79
2022/04/30 04:27:20;;;;;;;10.85;6.47;;;;;;;5.89;100.00;102792.81;4969477;28;20066;-80
2022/04/30 04:29:50;;;;;;;10.52;5.70;;;;;;;5.91;100.00;102798.13;4961384;28;20335;-80
2022/04/30 04:32:18;;;;;;;7.28;6.38;;;;;;;5.93;100.00;102793.88;4964396;28;20074;-80
2022/04/30 04:34:46;;;;;;;9.10;6.10;;;;;;;5.95;100.00;102797.47;4959277;28;20039;-80
2022/04/30 04:37:19;;;;;;;13.00;6.45;;;;;;;5.99;100.00;102796.84;4948833;28;20047;-80
2022/04/30 04:39:48;;;;;;;7.75;6.50;;;;;;;6.01;100.00;102792.59;4958520;28;20500;-80
2022/04/30 04:42:19;;;;;;;8.80;6.13;;;;;;;6.04;100.00;102790.16;4982938;28;20045;-80
2022/04/30 04:44:48;;;;;;;8.77;6.05;;;;;;;6.04;100.00;102792.75;4962371;28;20536;-79
2022/04/30 04:47:16;;;;;;;9.60;7.72;;;;;;;6.05;100.00;102790.22;4985176;28;20164;-79
2022/04/30 04:49:47;;;;;;;11.18;6.55;;;;;;;6.07;100.00;102795.56;4988280;28;20192;-79
2022/04/30 04:52:15;;;;;;;;;;;;;;;6.11;100.00;102780.91;4978584;28;20038;-79
2022/04/30 04:54:44;;;;;;;9.48;6.60;;;;;;;6.13;100.00;102787.13;4961502;28;20571;-79
2022/04/30 04:57:14;;;;;;;9.85;6.63;;;;;;;6.16;100.00;102785.56;4948711;28;20399;-79
2022/04/30 04:59:43;;;;;;;9.90;6.82;;;;;;;6.20;100.00;102795.38;4984062;28;20050;-79
2022/04/30 05:02:11;;;;;;;9.38;6.78;;;;;;;6.24;100.00;102786.84;4983190;28;20049;-80
2022/04/30 05:04:40;;;;;;;8.23;6.55;;;;;;;6.29;100.00;102794.94;4978722;28;20039;-80
2022/04/30 05:07:09;;;;;;;8.40;6.15;;;;;;;6.33;100.00;102789.06;4963995;28;20059;-79
2022/04/30 05:09:38;;;;;;;8.88;6.32;;;;;;;6.39;100.00;102791.06;4964235;28;20156;-80
2022/04/30 05:12:07;;;;;;;9.18;6.32;;;;;;;6.45;100.00;102799.25;4972532;28;20046;-80
2022/04/30 05:14:35;;;;;;;10.20;6.50;;;;;;;6.52;100.00;102797.84;4970249;28;20291;-79
2022/04/30 05:17:07;;;;;;;7.55;5.40;;;;;;;6.58;100.00;102796.44;4980095;28;20496;-79
2022/04/30 05:19:36;;;;;;;6.65;5.97;;;;;;;6.64;100.00;102798.47;4988264;28;20050;-79
2022/04/30 05:22:04;;;;;;;10.30;6.57;;;;;;;6.68;100.00;102803.03;4970162;28;20061;-79
2022/04/30 05:24:33;;;;;;;9.27;6.13;;;;;;;6.73;100.00;102798.03;4989962;28;20081;-79
2022/04/30 05:27:02;;;;;;;5.75;5.07;;;;;;;6.78;100.00;102792.19;4968965;28;20065;-79
2022/04/30 05:29:32;;;;;;;8.45;5.97;;;;;;;6.83;100.00;102795.94;4945252;28;20404;-79
2022/04/30 05:32:00;;;;;;;7.82;5.78;;;;;;;6.89;100.00;102799.69;4956739;28;20054;-80
2022/04/30 05:34:29;;;;;;;12.25;6.25;;;;;;;6.93;100.00;102802.53;4947431;28;20266;-79
2022/04/30 05:36:58;;;;;;;11.30;5.85;;;;;;;6.96;100.00;102804.44;4945260;28;20420;-80
2022/04/30 05:39:26;;;;;;;6.90;5.70;;;;;;;6.98;100.00;102802.78;4922296;28;20051;-79
2022/04/30 05:41:55;;;;;;;7.50;5.55;;;;;;;7.00;100.00;102799.41;4931306;29;20513;-80
2022/04/30 05:44:23;;;;;;;8.30;5.97;;;;;;;7.05;100.00;102801.34;4923428;28;20047;-79
2022/04/30 05:46:52;;;;;;;11.10;6.13;;;;;;;7.06;100.00;102800.53;4909593;29;20054;-79
2022/04/30 05:49:20;;;;;;;7.07;5.65;;;;;;;7.09;100.00;102804.22;4914341;29;20405;-79
2022/04/30 05:51:49;;;;;;;6.82;6.18;;;;;;;7.12;100.00;102801.72;4931121;28;20047;-82
2022/04/30 05:54:19;;;;;;;10.85;5.97;;;;;;;7.14;100.00;102802.69;4908473;29;20043;-81
2022/04/30 05:56:48;;;;;;;7.93;5.72;;;;;;;7.17;100.00;102804.56;4947294;29;20055;-81
2022/04/30 05:59:18;;;;;;;11.52;6.40;;;;;;;7.17;100.00;102808.09;4918495;28;20054;-81
2022/04/30 06:01:46;;;;;;;8.70;5.80;;;;;;;7.19;100.00;102808.16;4937650;28;20373;-81
2022/04/30 06:04:15;;;;;;;10.88;6.97;;;;;;;7.20;100.00;102802.09;4945961;28;20039;-81
2022/04/30 06:06:44;;;;;;;11.40;6.78;;;;;;;7.24;100.00;102806.69;4936172;28;20107;-81
2022/04/30 06:09:13;;;;;;;9.25;6.22;;;;;;;7.28;100.00;102808.63;4951887;28;20154;-81
2022/04/30 06:11:42;;;;;;;13.02;6.15;;;;;;;7.36;100.00;102807.25;4958557;28;20062;-81
2022/04/30 06:14:11;;;;;;;11.20;6.65;;;;;;;7.46;100.00;102812.94;4958551;28;20038;-81
2022/04/30 06:16:39;;;;;;;7.22;5.57;;;;;;;7.57;100.00;102812.59;4969724;28;20038;-81
2022/04/30 06:19:08;;;;;;;10.10;6.15;;;;;;;7.73;100.00;102816.88;4972132;28;20031;-81
2022/04/30 06:21:40;;;;;;;12.68;6.85;;;;;;;7.90;100.00;102816.72;4972172;28;20042;-81
2022/04/30 06:24:09;;;;;;;9.18;5.55;;;;;;;8.05;100.00;102820.03;4971099;28;20380;-81
2022/04/30 06:26:37;;;;;;;7.03;5.25;;;;;;;8.24;100.00;102820.88;4995907;28;20156;-80
2022/04/30 06:29:06;;;;;;;8.98;5.43;;;;;;;8.46;100.00;102817.50;4973630;28;20035;-79
2022/04/30 06:31:35;;;;;;;9.43;5.28;;;;;;;8.58;100.00;102816.31;4963528;28;20055;-79
2022/04/30 06:34:04;;;;;;;10.63;5.45;;;;;;;8.75;100.00;102811.75;4976528;28;20050;-81
2022/04/30 06:36:32;;;;;;;7.47;5.25;;;;;;;9.03;100.00;102815.50;4981993;28;20276;-80
2022/04/30 06:39:01;;;;;;;6.40;4.63;;;;;;;9.41;100.00;102817.91;4992779;28;20503;-81
2022/04/30 06:41:29;;;;;;;8.55;5.25;;;;;;;9.90;100.00;102811.88;4974014;28;20069;-80
2022/04/30 06:43:58;;;;;;;7.68;5.55;;;;;;;10.26;100.00;102806.16;4963451;28;20034;-79
2022/04/30 06:46:26;;;;;;;6.85;5.07;;;;;;;10.41;100.00;102805.84;4983018;28;20051;-79
2022/04/30 06:48:54;;;;;;;10.93;5.18;;;;;;;10.52;100.00;102808.00;4986529;28;20046;-80
2022/04/30 06:51:23;;;;;;;6.38;4.88;;;;;;;10.51;100.00;102811.50;4973374;28;20058;-80
2022/04/30 06:59:28;;;;;;;9.40;4.88;;;;;;;10.50;100.00;102804.44;4956298;28;20069;-82
2022/04/30 07:02:05;;;;;;;6.28;4.00;;;;;;;10.53;100.00;102806.28;4983292;28;20046;-79
2022/04/30 07:04:34;;;;;;;7.40;3.72;;;;;;;10.59;100.00;102801.22;5002601;28;20272;-82
2022/04/30 07:07:03;;;;;;;5.28;4.05;;;;;;;10.66;100.00;102797.97;4982492;28;20054;-81
2022/04/30 07:09:34;;;;;;;6.35;3.97;;;;;;;10.79;100.00;102795.72;4972887;28;20355;-80
2022/04/30 07:12:06;;;;;;;4.13;3.83;;;;;;;10.96;100.00;102797.16;5005954;28;20039;-80
2022/04/30 07:14:36;;;;;;;7.03;3.33;;;;;;;11.15;100.00;102806.56;4945483;28;20046;-79
2022/04/30 07:17:06;;;;;;;7.57;3.63;;;;;;;11.29;100.00;102801.75;4985231;28;20530;-82
2022/04/30 07:19:35;;;;;;;6.45;4.00;;;;;;;11.35;100.00;102801.06;4982536;28;20188;-81
2022/04/30 07:22:07;;;;;;;3.58;2.80;;;;;;;11.32;100.00;102802.75;4975073;28;20050;-81
2022/04/30 07:24:36;;;;;;;5.28;2.72;;;;;;;11.31;100.00;102800.06;4966619;28;20061;-81
2022/04/30 07:27:06;;;;;;;5.80;3.57;;;;;;;11.31;100.00;102797.41;4973486;28;20050;-80
2022/04/30 07:29:37;;;;;;;8.57;3.40;;;;;;;11.24;100.00;102798.94;4985737;28;20042;-82
2022/04/30 07:32:09;;;;;;;4.82;2.42;;;;;;;11.18;99.15;102803.16;4968682;28;20053;-80
2022/04/30 07:34:38;;;;;;;3.13;2.63;;;;;;;11.12;98.33;102796.81;4969833;28;20680;-80
2022/04/30 07:37:10;;;;;;;6.85;3.30;;;;;;;11.08;98.08;102807.25;5000683;28;20522;-80
2022/04/30 07:39:40;;;;;;;3.97;2.45;;;;;;;10.97;97.36;102798.97;4967954;28;20066;-82
2022/04/30 07:42:09;;;;;;;6.53;2.47;;;;;;;10.87;96.52;102805.69;4967688;28;20051;-82
2022/04/30 07:44:39;;;;;;;4.82;2.40;;;;;;;10.85;97.44;102801.19;4974909;28;20582;-80
2022/04/30 07:47:08;;;;;;;3.10;2.27;;;;;;;10.80;97.05;102801.06;4950195;28;20054;-81
2022/04/30 07:49:36;;;;;;;4.50;2.50;;;;;;;10.83;97.36;102805.53;4948290;28;20354;-80
2022/04/30 07:52:06;;;;;;;3.45;2.50;;;;;;;10.84;97.76;102809.97;4984777;28;20061;-80
2022/04/30 07:54:34;;;;;;;5.70;2.92;;;;;;;10.84;96.99;102808.22;4971979;28;20054;-80
2022/04/30 07:57:03;;;;;;;7.53;3.15;;;;;;;10.86;97.12;102806.53;4988077;28;20038;-80
2022/04/30 07:59:33;;;;;;;;;;;;;;;10.92;96.55;102806.72;4969990;28;20611;-80
2022/04/30 08:02:01;;;;;;;4.90;3.05;;;;;;;10.92;96.28;102808.47;4964429;28;19929;-80
2022/04/30 08:04:30;;;;;;;5.47;2.25;;;;;;;10.89;96.55;102804.00;4952712;28;20088;-81
2022/04/30 08:06:59;;;;;;;4.50;2.80;;;;;;;10.91;96.16;102806.69;4995554;28;20030;-80
2022/04/30 08:09:28;;;;;;;2.92;2.10;;;;;;;10.93;95.98;102808.53;4976260;28;20046;-81
2022/04/30 08:11:56;;;;;;;3.22;2.47;;;;;;;11.00;96.65;102807.00;4987805;28;20058;-81
2022/04/30 08:14:34;;;;;;;5.40;2.40;;;;;;;11.12;97.38;102814.41;4978205;28;20039;-80
2022/04/30 08:17:05;;;;;;;3.45;2.28;;;;;;;11.18;96.05;102809.31;4943436;28;20050;-81
2022/04/30 08:19:34;;;;;;;4.78;2.58;;;;;;;11.23;96.16;102802.47;4974830;28;20702;-81
2022/04/30 08:22:07;;;;;;;5.30;2.97;;;;;;;11.30;95.96;102800.88;4985291;28;20507;-81
2022/04/30 08:24:43;;;;;;;5.22;2.40;;;;;;;11.40;95.71;102800.34;4976005;28;20046;-81
2022/04/30 08:27:12;;;;;;;4.70;2.97;;;;;;;11.47;95.99;102804.06;4979404;28;20046;-81
2022/04/30 08:29:40;;;;;;;3.88;2.95;;;;;;;11.57;95.61;102806.16;4959138;28;20054;-80
2022/04/30 08:32:09;;;;;;;17.55;3.33;;;;;;;11.64;95.54;102800.16;4961801;28;20057;-80
2022/04/30 08:34:39;;;;;;;8.82;2.90;;;;;;;11.69;95.20;102798.56;4932248;28;20423;-79
2022/04/30 08:37:08;;;;;;;3.45;2.63;;;;;;;11.70;94.39;102803.03;4951724;28;20041;-81
2022/04/30 08:39:37;;;;;;;6.18;2.78;;;;;;;11.70;92.68;102795.09;4975011;28;20046;-80
2022/04/30 08:42:07;;;;;;;4.45;2.58;;;;;;;11.76;92.22;102806.66;4943863;28;20049;-81
2022/04/30 08:44:39;;;;;;;5.90;2.63;;;;;;;11.80;91.82;102796.25;4989092;28;20246;-80
2022/04/30 08:47:11;;;;;;;9.75;3.17;;;;;;;11.86;92.27;102798.19;4977829;28;20055;-80
2022/04/30 08:49:41;;;;;;;;;;;;;;;11.88;88.05;102800.00;4966798;28;20054;-80
2022/04/30 08:52:12;;;;;;;3.10;2.55;;;;;;;11.92;91.02;102793.09;4972272;28;20370;-80
2022/04/30 08:54:43;;;;;;;3.97;2.50;;;;;;;11.90;90.56;102793.06;4973277;28;20061;-79
2022/04/30 08:57:14;;;;;;;7.65;2.85;;;;;;;11.93;91.53;102788.69;4963348;28;20503;-80
2022/04/30 08:59:43;;;;;;;2.90;2.55;;;;;;;11.96;92.57;102791.44;4959256;28;20057;-80
2022/04/30 09:02:11;;;;;;;5.65;2.60;;;;;;;11.91;90.26;102793.97;4957501;28;20049;-80
2022/04/30 09:04:45;;;;;;;4.07;2.55;;;;;;;11.81;89.97;102797.16;4952136;28;20031;-79
2022/04/30 09:07:20;;;;;;;3.92;2.60;;;;;;;11.72;89.42;102797.78;4979700;28;20495;-79
2022/04/30 09:10:00;;;;;;;2.30;2.10;;;;;;;11.61;89.01;102797.47;4996951;28;20061;-79
2022/04/30 09:12:31;;;;;;;4.07;2.40;;;;;;;11.63;90.02;102797.50;4978525;28;20243;-79
2022/04/30 09:14:59;;;;;;;7.13;2.50;;;;;;;11.66;89.95;102789.66;4988350;28;20051;-79
2022/04/30 09:17:28;;;;;;;5.35;2.58;;;;;;;11.66;88.88;102787.03;4956645;28;20036;-79
2022/04/30 09:20:04;;;;;;;2.97;2.63;;;;;;;11.51;89.06;102788.38;4954522;28;20046;-80
2022/04/30 09:22:35;;;;;;;4.25;2.60;;;;;;;11.46;89.93;102786.44;4999686;28;20424;-79
2022/04/30 09:25:12;;;;;;;3.78;3.03;;;;;;;11.51;90.28;102787.44;4968554;28;20061;-78
2022/04/30 09:28:01;;;;;;;4.13;2.25;;;;;;;11.59;89.62;102793.00;4978631;28;20043;-78
2022/04/30 09:30:31;;;;;;;3.58;2.50;;;;;;;11.65;90.44;102786.13;4986044;28;20164;-78
2022/04/30 09:33:02;;;;;;;4.80;2.28;;;;;;;11.73;89.51;102790.75;4988900;28;20050;-79
2022/04/30 09:38:25;;;;;;;5.72;2.90;;;;;;;11.63;88.37;102790.47;4972376;28;20046;-79
2022/04/30 09:40:57;;;;;;;2.50;2.30;;;;;;;11.66;89.56;102787.94;4987881;28;20054;-79
2022/04/30 09:43:30;;;;;;;5.18;2.25;;;;;;;11.68;88.92;102794.16;4979645;28;20038;-77
2022/04/30 09:46:06;;;;;;;3.22;2.42;;;;;;;11.66;89.44;102787.94;4970899;28;20046;-79
2022/04/30 09:54:10;;;;;;;8.68;2.40;;;;;;;11.87;89.54;102781.47;4959573;28;20046;-79
2022/04/30 09:56:43;;;;;;;4.13;2.45;;;;;;;11.95;88.61;102774.72;4982077;28;20392;-79
2022/04/30 09:59:13;;;;;;;6.88;3.40;;;;;;;11.98;87.74;102780.06;4978136;28;20038;-79
2022/04/30 10:01:44;;;;;;;3.10;2.42;;;;;;;11.99;88.81;102775.69;4988989;28;20050;-80
2022/04/30 10:04:15;;;;;;;3.20;2.72;;;;;;;12.07;89.06;102769.75;4971350;28;20050;-80
2022/04/30 10:06:44;;;;;;;;;;;;;;;12.15;89.29;102775.25;4982536;28;20030;-77
2022/04/30 10:09:23;;;;;;;3.22;2.63;;;;;;;12.20;87.10;102773.63;4962085;28;19926;-80
2022/04/30 10:12:14;;;;;;;4.40;2.25;;;;;;;12.14;84.42;102764.66;4987399;28;20534;-79
2022/04/30 10:15:03;;;;;;;3.60;2.67;;;;;;;12.05;86.64;102775.84;4975994;28;20407;-79
2022/04/30 10:17:33;;;;;;;6.15;2.50;;;;;;;12.10;88.42;102771.59;4971985;28;20247;-79
2022/04/30 10:20:07;;;;;;;5.85;3.08;;;;;;;12.02;87.83;102767.84;4983507;28;20058;-79
2022/04/30 10:22:36;;;;;;;4.00;2.70;;;;;;;11.91;88.69;102764.91;4978961;28;20042;-79
2022/04/30 10:25:06;;;;;;;7.38;2.95;;;;;;;11.94;89.52;102764.97;4949629;28;20045;-79
2022/04/30 10:27:40;;;;;;;5.70;2.90;;;;;;;11.98;89.22;102769.50;4969639;28;20269;-79
2022/04/30 10:30:24;;;;;;;3.50;2.50;;;;;;;12.13;89.13;102763.75;4962089;28;20062;-82
2022/04/30 10:33:00;;;;;;;5.90;3.00;;;;;;;12.24;89.31;102766.69;4980613;28;20057;-79
2022/04/30 10:35:31;;;;;;;5.65;2.42;;;;;;;12.33;88.29;102759.00;4986546;28;20049;-80
2022/04/30 10:38:06;;;;;;;5.03;2.95;;;;;;;12.37;87.30;102752.94;4968199;28;20034;-79
2022/04/30 10:40:40;;;;;;;4.20;2.50;;;;;;;12.39;86.58;102753.88;4976396;28;20270;-80
2022/04/30 10:43:18;;;;;;;3.88;2.70;;;;;;;12.33;85.90;102747.53;4971218;28;20051;-82
2022/04/30 10:45:48;;;;;;;2.93;2.53;;;;;;;12.31;86.40;102749.25;5000589;28;20046;-80
2022/04/30 10:48:18;;;;;;;2.60;2.35;;;;;;;12.26;87.12;102755.28;4988570;28;20034;-83
2022/04/30 10:51:00;;;;;;;6.28;2.72;;;;;;;12.20;85.86;102751.59;5000192;28;20098;-82
2022/04/30 10:53:28;;;;;;;5.75;2.83;;;;;;;12.14;85.81;102749.69;4978484;28;20597;-83
2022/04/30 10:55:57;;;;;;;5.28;2.65;;;;;;;12.10;86.08;102747.81;4970796;28;20043;-83
2022/04/30 10:58:27;;;;;;;4.72;2.97;;;;;;;12.11;87.06;102738.13;4968178;28;20561;-80
2022/04/30 11:00:56;;;;;;;3.53;2.80;;;;;;;12.07;85.62;102748.59;4992368;28;20542;-80
2022/04/30 11:03:26;;;;;;;2.97;2.50;;;;;;;11.98;85.06;102739.53;4941452;28;20051;-79
2022/04/30 11:05:56;;;;;;;2.67;2.40;;;;;;;11.91;85.50;102743.78;4992355;28;20065;-79
2022/04/30 11:08:24;;;;;;;6.15;2.60;;;;;;;11.93;86.54;102744.72;4938010;28;20265;-78
2022/04/30 11:10:54;;;;;;;3.30;2.80;;;;;;;11.98;86.44;102743.06;4987209;28;20392;-77
2022/04/30 11:13:23;;;;;;;6.38;2.92;;;;;;;12.04;86.71;102737.97;4977036;28;20046;-78
2022/04/30 11:15:51;;;;;;;4.05;2.55;;;;;;;12.02;86.43;102736.13;4983292;28;20373;-78
2022/04/30 11:18:23;;;;;;;3.15;2.65;;;;;;;12.02;86.60;102736.13;4954876;28;20031;-77
2022/04/30 11:21:01;;;;;;;3.95;2.80;;;;;;;12.01;86.78;102737.88;4951470;28;20058;-77
2022/04/30 11:23:30;;;;;;;6.55;2.60;;;;;;;11.98;85.08;102732.50;4947974;28;20054;-78
2022/04/30 11:25:58;;;;;;;5.50;2.88;;;;;;;11.97;86.16;102735.13;4971294;28;20122;-78
2022/04/30 11:28:29;;;;;;;7.18;2.72;;;;;;;12.05;86.54;102728.28;4958341;28;20106;-78
2022/04/30 11:30:59;;;;;;;2.63;2.43;;;;;;;12.13;86.68;102728.50;4964624;28;20034;-78
2022/04/30 11:33:33;;;;;;;3.72;2.70;;;;;;;12.21;86.81;102732.22;4984095;28;20252;-77
2022/04/30 11:36:02;;;;;;;29.67;4.80;;;;;;;12.27;86.85;102722.72;4985357;28;20050;-77
2022/04/30 11:38:31;;;;;;;5.97;2.97;;;;;;;12.20;84.32;102728.69;4982611;28;20248;-78
2022/04/30 11:41:07;;;;;;;5.22;2.55;;;;;;;12.25;85.36;102727.09;4931410;28;20049;-78
2022/04/30 11:43:36;;;;;;;75.40;8.70;;;;;;;12.34;85.72;102723.75;4980774;28;20050;-78
2022/04/30 11:46:05;;;;;;;9.57;2.80;;;;;;;12.37;85.85;102720.31;4983740;28;20034;-79
2022/04/30 11:48:39;;;;;;;111.00;11.50;;;;;;;12.39;85.18;102716.84;4970472;28;20042;-79
2022/04/30 11:51:11;;;;;;;12.27;2.55;;;;;;;12.45;85.55;102714.34;4988910;28;20499;-79
2022/04/30 11:53:40;;;;;;;2.80;2.40;;;;;;;12.50;86.02;102713.59;4971059;28;20073;-78
2022/04/30 11:56:09;;;;;;;5.57;2.15;;;;;;;12.47;84.38;102715.28;4961261;28;20146;-79
2022/04/30 11:58:43;;;;;;;2.33;2.10;;;;;;;12.38;83.57;102715.09;4959735;28;20038;-78
2022/04/30 12:01:25;;;;;;;4.05;2.50;;;;;;;12.30;82.24;102713.97;4983918;28;20523;-79
2022/04/30 12:04:04;;;;;;;8.05;2.92;;;;;;;12.21;83.42;102708.44;4951523;28;20042;-77
2022/04/30 12:06:36;;;;;;;2.63;2.40;;;;;;;12.14;84.20;102712.69;4969594;28;20239;-78
2022/04/30 12:09:18;;;;;;;3.92;2.60;;;;;;;12.15;85.05;102710.94;4957445;28;20376;-78
2022/04/30 12:11:53;;;;;;;6.10;2.75;;;;;;;12.18;85.68;102703.97;4998291;28;20030;-78
2022/04/30 12:14:22;;;;;;;4.10;2.63;;;;;;;12.25;85.47;102708.56;4971504;28;20053;-79
2022/04/30 12:16:52;;;;;;;4.88;2.88;;;;;;;12.27;86.04;102708.63;4986735;28;20049;-79
2022/04/30 12:25:14;;;;;;;5.43;2.30;;;;;;;12.12;84.27;102708.19;4952202;28;20038;-79
2022/04/30 12:27:54;;;;;;;2.90;2.20;;;;;;;12.01;83.81;102702.66;4966934;28;20054;-79